sensor_id;sensor_type;location;lat;lon;timestamp;pressure;altitude;pressure_sealevel;temperature;humidity
43480;BME280;29067;35.492;-97.520;2022-10-18T00:00:19;97910.93;;;12.70;19.27
43480;BME280;29067;35.492;-97.520;2022-10-18T00:02:47;97911.61;;;12.15;19.56
43480;BME280;29067;35.492;-97.520;2022-10-18T00:05:15;97911.83;;;12.16;19.26
43480;BME280;29067;35.492;-97.520;2022-10-18T00:07:43;97914.57;;;12.10;19.89
43480;BME280;29067;35.492;-97.520;2022-10-18T00:10:11;97914.28;;;12.05;19.79
43480;BME280;29067;35.492;-97.520;2022-10-18T00:12:38;97916.54;;;12.22;19.70
43480;BME280;29067;35.492;-97.520;2022-10-18T00:15:07;97916.38;;;11.78;19.86
43480;BME280;29067;35.492;-97.520;2022-10-18T00:17:36;97917.42;;;12.42;20.47
43480;BME280;29067;35.492;-97.520;2022-10-18T00:20:06;97915.80;;;11.58;20.02
43480;BME280;29067;35.492;-97.520;2022-10-18T00:22:35;97916.32;;;11.76;20.21
43480;BME280;29067;35.492;-97.520;2022-10-18T00:25:04;97917.12;;;12.86;19.80
43480;BME280;29067;35.492;-97.520;2022-10-18T00:27:34;97918.36;;;13.50;19.62
43480;BME280;29067;35.492;-97.520;2022-10-18T00:30:02;97917.22;;;12.64;19.84
43480;BME280;29067;35.492;-97.520;2022-10-18T00:32:33;97913.70;;;10.91;20.67
43480;BME280;29067;35.492;-97.520;2022-10-18T00:35:02;97917.30;;;12.07;20.24
43480;BME280;29067;35.492;-97.520;2022-10-18T00:37:30;97917.47;;;12.48;20.37
43480;BME280;29067;35.492;-97.520;2022-10-18T00:39:58;97917.45;;;13.36;20.21
43480;BME280;29067;35.492;-97.520;2022-10-18T00:42:29;97914.40;;;12.28;20.29
43480;BME280;29067;35.492;-97.520;2022-10-18T00:45:04;97920.13;;;11.79;20.00
43480;BME280;29067;35.492;-97.520;2022-10-18T00:47:33;97920.04;;;11.11;20.57
43480;BME280;29067;35.492;-97.520;2022-10-18T00:50:03;97919.95;;;11.84;19.96
43480;BME280;29067;35.492;-97.520;2022-10-18T00:52:35;97920.73;;;12.10;20.99
43480;BME280;29067;35.492;-97.520;2022-10-18T00:55:06;97918.31;;;11.17;20.10
43480;BME280;29067;35.492;-97.520;2022-10-18T00:57:35;97920.07;;;13.35;20.20
43480;BME280;29067;35.492;-97.520;2022-10-18T01:00:04;97924.66;;;11.99;20.05
43480;BME280;29067;35.492;-97.520;2022-10-18T01:02:33;97924.92;;;12.85;19.83
43480;BME280;29067;35.492;-97.520;2022-10-18T01:05:01;97925.74;;;12.66;21.56
43480;BME280;29067;35.492;-97.520;2022-10-18T01:07:40;97928.14;;;12.87;21.01
43480;BME280;29067;35.492;-97.520;2022-10-18T01:10:22;97931.23;;;13.37;20.91
43480;BME280;29067;35.492;-97.520;2022-10-18T01:13:03;97932.58;;;11.52;21.51
43480;BME280;29067;35.492;-97.520;2022-10-18T01:15:36;97933.49;;;12.39;20.29
43480;BME280;29067;35.492;-97.520;2022-10-18T01:18:15;97933.12;;;10.90;22.07
43480;BME280;29067;35.492;-97.520;2022-10-18T01:21:06;97935.30;;;11.15;21.18
43480;BME280;29067;35.492;-97.520;2022-10-18T01:23:52;97933.87;;;11.40;21.10
43480;BME280;29067;35.492;-97.520;2022-10-18T01:26:38;97939.81;;;11.60;21.45
43480;BME280;29067;35.492;-97.520;2022-10-18T01:29:16;97936.68;;;11.41;20.90
43480;BME280;29067;35.492;-97.520;2022-10-18T01:31:50;97939.37;;;11.79;20.73
43480;BME280;29067;35.492;-97.520;2022-10-18T01:34:21;97942.03;;;11.61;21.01
43480;BME280;29067;35.492;-97.520;2022-10-18T01:36:54;97944.29;;;11.56;21.12
43480;BME280;29067;35.492;-97.520;2022-10-18T01:39:27;97945.97;;;11.75;21.51
43480;BME280;29067;35.492;-97.520;2022-10-18T01:41:58;97952.17;;;10.59;22.15
43480;BME280;29067;35.492;-97.520;2022-10-18T01:44:29;97952.57;;;11.49;21.82
43480;BME280;29067;35.492;-97.520;2022-10-18T01:46:59;97957.11;;;10.83;22.35
43480;BME280;29067;35.492;-97.520;2022-10-18T01:49:27;97963.34;;;10.57;22.25
43480;BME280;29067;35.492;-97.520;2022-10-18T01:51:55;97965.31;;;10.56;22.15
43480;BME280;29067;35.492;-97.520;2022-10-18T01:54:31;97964.77;;;11.51;21.66
43480;BME280;29067;35.492;-97.520;2022-10-18T01:57:02;97964.83;;;10.93;22.21
43480;BME280;29067;35.492;-97.520;2022-10-18T01:59:40;97964.69;;;11.58;21.67
43480;BME280;29067;35.492;-97.520;2022-10-18T02:02:19;97964.94;;;11.09;21.83
43480;BME280;29067;35.492;-97.520;2022-10-18T02:05:00;97965.69;;;11.09;22.10
43480;BME280;29067;35.492;-97.520;2022-10-18T02:07:32;97969.79;;;10.13;22.00
43480;BME280;29067;35.492;-97.520;2022-10-18T02:10:10;97968.12;;;11.69;21.37
43480;BME280;29067;35.492;-97.520;2022-10-18T02:12:42;97970.16;;;11.06;21.63
43480;BME280;29067;35.492;-97.520;2022-10-18T02:15:13;97969.10;;;10.47;21.79
43480;BME280;29067;35.492;-97.520;2022-10-18T02:17:45;97971.79;;;11.14;22.54
43480;BME280;29067;35.492;-97.520;2022-10-18T02:20:15;97974.71;;;10.15;22.86
43480;BME280;29067;35.492;-97.520;2022-10-18T02:22:46;97976.91;;;10.91;21.31
43480;BME280;29067;35.492;-97.520;2022-10-18T02:25:19;97977.28;;;12.00;22.70
43480;BME280;29067;35.492;-97.520;2022-10-18T02:27:48;97982.34;;;11.73;22.56
43480;BME280;29067;35.492;-97.520;2022-10-18T02:30:16;97985.89;;;11.04;23.42
43480;BME280;29067;35.492;-97.520;2022-10-18T02:32:48;97985.05;;;11.77;22.86
43480;BME280;29067;35.492;-97.520;2022-10-18T02:35:23;97983.73;;;11.66;22.76
43480;BME280;29067;35.492;-97.520;2022-10-18T02:37:53;97987.27;;;11.21;22.76
43480;BME280;29067;35.492;-97.520;2022-10-18T02:40:23;97989.22;;;10.41;24.18
43480;BME280;29067;35.492;-97.520;2022-10-18T02:42:55;97993.41;;;11.18;23.08
43480;BME280;29067;35.492;-97.520;2022-10-18T02:45:23;97992.80;;;11.84;23.49
43480;BME280;29067;35.492;-97.520;2022-10-18T02:47:52;97998.72;;;11.12;23.07
43480;BME280;29067;35.492;-97.520;2022-10-18T02:50:20;97999.10;;;10.24;23.61
43480;BME280;29067;35.492;-97.520;2022-10-18T02:52:48;97999.57;;;10.19;23.00
43480;BME280;29067;35.492;-97.520;2022-10-18T02:55:16;97996.45;;;10.71;22.71
43480;BME280;29067;35.492;-97.520;2022-10-18T02:57:44;98000.68;;;9.98;23.69
43480;BME280;29067;35.492;-97.520;2022-10-18T03:00:14;97998.09;;;10.57;22.10
43480;BME280;29067;35.492;-97.520;2022-10-18T03:02:41;98000.47;;;10.47;23.07
43480;BME280;29067;35.492;-97.520;2022-10-18T03:05:09;98003.43;;;10.94;23.08
43480;BME280;29067;35.492;-97.520;2022-10-18T03:07:37;98003.93;;;10.68;23.06
43480;BME280;29067;35.492;-97.520;2022-10-18T03:10:06;98006.23;;;10.68;23.76
43480;BME280;29067;35.492;-97.520;2022-10-18T03:12:33;98009.13;;;10.59;23.80
43480;BME280;29067;35.492;-97.520;2022-10-18T03:15:01;98012.29;;;10.11;23.27
43480;BME280;29067;35.492;-97.520;2022-10-18T03:17:29;98015.78;;;10.14;24.11
43480;BME280;29067;35.492;-97.520;2022-10-18T03:19:57;98020.42;;;10.06;23.06
43480;BME280;29067;35.492;-97.520;2022-10-18T03:22:25;98023.01;;;9.81;24.28
43480;BME280;29067;35.492;-97.520;2022-10-18T03:24:53;98025.74;;;10.11;23.65
43480;BME280;29067;35.492;-97.520;2022-10-18T03:27:20;98027.74;;;10.62;23.08
43480;BME280;29067;35.492;-97.520;2022-10-18T03:29:48;98028.66;;;9.96;24.06
43480;BME280;29067;35.492;-97.520;2022-10-18T03:32:16;98028.46;;;11.01;23.24
43480;BME280;29067;35.492;-97.520;2022-10-18T03:34:44;98034.59;;;9.14;22.76
43480;BME280;29067;35.492;-97.520;2022-10-18T03:37:12;98035.54;;;10.22;23.64
43480;BME280;29067;35.492;-97.520;2022-10-18T03:39:40;98039.60;;;8.49;24.37
43480;BME280;29067;35.492;-97.520;2022-10-18T03:42:08;98035.42;;;10.08;23.67
43480;BME280;29067;35.492;-97.520;2022-10-18T03:44:36;98036.90;;;11.02;22.81
43480;BME280;29067;35.492;-97.520;2022-10-18T03:47:04;98036.50;;;10.68;23.09
43480;BME280;29067;35.492;-97.520;2022-10-18T03:49:32;98039.41;;;9.34;24.65
43480;BME280;29067;35.492;-97.520;2022-10-18T03:52:00;98035.33;;;10.43;23.20
43480;BME280;29067;35.492;-97.520;2022-10-18T03:54:27;98038.31;;;9.25;23.48
43480;BME280;29067;35.492;-97.520;2022-10-18T03:56:55;98039.38;;;8.82;25.81
43480;BME280;29067;35.492;-97.520;2022-10-18T03:59:24;98033.72;;;10.24;23.19
43480;BME280;29067;35.492;-97.520;2022-10-18T04:01:52;98034.47;;;9.08;24.71
43480;BME280;29067;35.492;-97.520;2022-10-18T04:04:20;98031.93;;;10.23;24.44
43480;BME280;29067;35.492;-97.520;2022-10-18T04:06:48;98035.04;;;8.84;25.85
43480;BME280;29067;35.492;-97.520;2022-10-18T04:09:16;98032.40;;;8.72;25.50
43480;BME280;29067;35.492;-97.520;2022-10-18T04:11:44;98028.57;;;9.96;24.32
43480;BME280;29067;35.492;-97.520;2022-10-18T04:14:12;98034.10;;;8.75;25.26
43480;BME280;29067;35.492;-97.520;2022-10-18T04:16:40;98030.05;;;9.03;25.07
43480;BME280;29067;35.492;-97.520;2022-10-18T04:19:08;98026.83;;;9.88;24.45
43480;BME280;29067;35.492;-97.520;2022-10-18T04:21:35;98024.94;;;10.38;24.77
43480;BME280;29067;35.492;-97.520;2022-10-18T04:24:04;98027.22;;;9.31;24.99
43480;BME280;29067;35.492;-97.520;2022-10-18T04:26:32;98029.06;;;8.71;25.26
43480;BME280;29067;35.492;-97.520;2022-10-18T04:29:00;98029.98;;;8.29;25.90
43480;BME280;29067;35.492;-97.520;2022-10-18T04:31:28;98030.37;;;8.31;25.81
43480;BME280;29067;35.492;-97.520;2022-10-18T04:33:56;98033.75;;;7.32;26.78
43480;BME280;29067;35.492;-97.520;2022-10-18T04:36:24;98030.68;;;8.68;25.85
43480;BME280;29067;35.492;-97.520;2022-10-18T04:38:52;98027.61;;;8.85;25.56
43480;BME280;29067;35.492;-97.520;2022-10-18T04:41:20;98032.10;;;7.88;26.84
43480;BME280;29067;35.492;-97.520;2022-10-18T04:43:48;98025.33;;;8.63;25.56
43480;BME280;29067;35.492;-97.520;2022-10-18T04:46:16;98022.98;;;8.99;25.67
43480;BME280;29067;35.492;-97.520;2022-10-18T04:48:44;98022.21;;;8.38;25.88
43480;BME280;29067;35.492;-97.520;2022-10-18T04:51:12;98018.93;;;8.31;25.16
43480;BME280;29067;35.492;-97.520;2022-10-18T04:53:40;98012.85;;;8.81;25.83
43480;BME280;29067;35.492;-97.520;2022-10-18T04:56:08;98015.18;;;9.16;26.39
43480;BME280;29067;35.492;-97.520;2022-10-18T04:58:36;98015.74;;;9.00;25.78
43480;BME280;29067;35.492;-97.520;2022-10-18T05:01:06;98016.08;;;9.42;25.93
43480;BME280;29067;35.492;-97.520;2022-10-18T05:03:34;98020.11;;;7.17;26.02
43480;BME280;29067;35.492;-97.520;2022-10-18T05:06:02;98017.32;;;7.72;26.24
43480;BME280;29067;35.492;-97.520;2022-10-18T05:08:30;98013.74;;;6.97;27.32
43480;BME280;29067;35.492;-97.520;2022-10-18T05:10:58;98017.94;;;8.09;26.92
43480;BME280;29067;35.492;-97.520;2022-10-18T05:13:26;98017.76;;;6.80;27.61
43480;BME280;29067;35.492;-97.520;2022-10-18T05:15:54;98021.97;;;6.14;28.83
43480;BME280;29067;35.492;-97.520;2022-10-18T05:18:22;98022.93;;;5.98;28.64
43480;BME280;29067;35.492;-97.520;2022-10-18T05:20:50;98021.35;;;5.95;29.04
43480;BME280;29067;35.492;-97.520;2022-10-18T05:23:18;98018.54;;;7.29;28.52
43480;BME280;29067;35.492;-97.520;2022-10-18T05:25:46;98017.70;;;6.51;29.17
43480;BME280;29067;35.492;-97.520;2022-10-18T05:28:14;98018.73;;;6.91;28.28
43480;BME280;29067;35.492;-97.520;2022-10-18T05:30:42;98020.72;;;5.83;29.01
43480;BME280;29067;35.492;-97.520;2022-10-18T05:33:10;98021.52;;;5.74;28.93
43480;BME280;29067;35.492;-97.520;2022-10-18T05:35:38;98019.15;;;7.12;28.54
43480;BME280;29067;35.492;-97.520;2022-10-18T05:38:07;98016.33;;;6.92;28.75
43480;BME280;29067;35.492;-97.520;2022-10-18T05:40:37;98016.27;;;6.75;28.20
43480;BME280;29067;35.492;-97.520;2022-10-18T05:43:05;98018.36;;;5.54;29.68
43480;BME280;29067;35.492;-97.520;2022-10-18T05:45:33;98021.70;;;5.36;30.54
43480;BME280;29067;35.492;-97.520;2022-10-18T05:48:02;98028.24;;;5.79;30.60
43480;BME280;29067;35.492;-97.520;2022-10-18T05:50:30;98028.66;;;5.26;31.66
43480;BME280;29067;35.492;-97.520;2022-10-18T05:52:58;98030.90;;;5.27;32.51
43480;BME280;29067;35.492;-97.520;2022-10-18T05:55:25;98032.73;;;5.73;31.92
43480;BME280;29067;35.492;-97.520;2022-10-18T05:57:53;98036.63;;;6.01;31.60
43480;BME280;29067;35.492;-97.520;2022-10-18T06:00:21;98039.71;;;5.15;31.45
43480;BME280;29067;35.492;-97.520;2022-10-18T06:02:49;98038.39;;;7.04;31.08
43480;BME280;29067;35.492;-97.520;2022-10-18T06:05:17;98045.88;;;6.11;32.09
43480;BME280;29067;35.492;-97.520;2022-10-18T06:07:45;98046.43;;;6.43;31.48
43480;BME280;29067;35.492;-97.520;2022-10-18T06:10:13;98046.70;;;6.45;31.90
43480;BME280;29067;35.492;-97.520;2022-10-18T06:12:41;98052.11;;;5.71;31.12
43480;BME280;29067;35.492;-97.520;2022-10-18T06:15:09;98051.21;;;6.71;29.10
43480;BME280;29067;35.492;-97.520;2022-10-18T06:17:37;98051.48;;;6.86;28.28
43480;BME280;29067;35.492;-97.520;2022-10-18T06:20:06;98052.09;;;6.00;29.47
43480;BME280;29067;35.492;-97.520;2022-10-18T06:22:34;98056.58;;;5.80;29.97
43480;BME280;29067;35.492;-97.520;2022-10-18T06:25:02;98058.77;;;5.65;29.12
43480;BME280;29067;35.492;-97.520;2022-10-18T06:27:33;98063.63;;;5.02;29.95
43480;BME280;29067;35.492;-97.520;2022-10-18T06:30:01;98065.51;;;5.61;28.85
43480;BME280;29067;35.492;-97.520;2022-10-18T06:32:28;98066.99;;;5.26;29.87
43480;BME280;29067;35.492;-97.520;2022-10-18T06:34:56;98070.37;;;4.50;30.67
43480;BME280;29067;35.492;-97.520;2022-10-18T06:37:24;98073.19;;;6.41;29.85
43480;BME280;29067;35.492;-97.520;2022-10-18T06:39:55;98067.87;;;6.74;29.36
43480;BME280;29067;35.492;-97.520;2022-10-18T06:42:23;98076.95;;;4.62;31.87
43480;BME280;29067;35.492;-97.520;2022-10-18T06:44:51;98077.80;;;5.38;31.20
43480;BME280;29067;35.492;-97.520;2022-10-18T06:47:19;98083.89;;;4.16;30.92
43480;BME280;29067;35.492;-97.520;2022-10-18T06:49:47;98081.40;;;5.93;31.01
43480;BME280;29067;35.492;-97.520;2022-10-18T06:52:16;98083.70;;;6.41;31.09
43480;BME280;29067;35.492;-97.520;2022-10-18T06:54:44;98084.73;;;6.95;30.93
43480;BME280;29067;35.492;-97.520;2022-10-18T06:57:13;98085.98;;;6.90;30.21
43480;BME280;29067;35.492;-97.520;2022-10-18T06:59:41;98086.05;;;6.78;30.14
43480;BME280;29067;35.492;-97.520;2022-10-18T07:02:10;98083.83;;;7.06;29.80
43480;BME280;29067;35.492;-97.520;2022-10-18T07:04:42;98085.46;;;5.71;31.08
43480;BME280;29067;35.492;-97.520;2022-10-18T07:07:10;98091.02;;;5.63;31.34
43480;BME280;29067;35.492;-97.520;2022-10-18T07:09:38;98092.86;;;6.00;32.29
43480;BME280;29067;35.492;-97.520;2022-10-18T07:12:06;98096.66;;;5.69;31.30
43480;BME280;29067;35.492;-97.520;2022-10-18T07:14:34;98096.29;;;6.49;30.96
43480;BME280;29067;35.492;-97.520;2022-10-18T07:17:02;98096.84;;;6.72;30.77
43480;BME280;29067;35.492;-97.520;2022-10-18T07:19:30;98096.55;;;5.55;31.64
43480;BME280;29067;35.492;-97.520;2022-10-18T07:21:58;98102.51;;;5.03;32.83
43480;BME280;29067;35.492;-97.520;2022-10-18T07:24:25;98105.39;;;4.81;33.46
43480;BME280;29067;35.492;-97.520;2022-10-18T07:26:54;98106.06;;;4.14;33.18
43480;BME280;29067;35.492;-97.520;2022-10-18T07:29:22;98108.46;;;3.84;34.61
43480;BME280;29067;35.492;-97.520;2022-10-18T07:31:50;98113.51;;;4.23;33.98
43480;BME280;29067;35.492;-97.520;2022-10-18T07:34:17;98111.92;;;4.45;33.47
43480;BME280;29067;35.492;-97.520;2022-10-18T07:36:45;98112.47;;;5.31;33.31
43480;BME280;29067;35.492;-97.520;2022-10-18T07:39:13;98114.58;;;4.62;33.67
43480;BME280;29067;35.492;-97.520;2022-10-18T07:41:41;98116.93;;;4.39;34.00
43480;BME280;29067;35.492;-97.520;2022-10-18T07:44:09;98118.59;;;3.61;35.14
43480;BME280;29067;35.492;-97.520;2022-10-18T07:46:37;98117.44;;;3.59;34.63
43480;BME280;29067;35.492;-97.520;2022-10-18T07:49:05;98115.74;;;4.16;34.15
43480;BME280;29067;35.492;-97.520;2022-10-18T07:51:32;98111.05;;;4.96;32.08
43480;BME280;29067;35.492;-97.520;2022-10-18T07:54:00;98114.62;;;4.25;34.33
43480;BME280;29067;35.492;-97.520;2022-10-18T07:56:28;98113.69;;;3.92;34.04
43480;BME280;29067;35.492;-97.520;2022-10-18T07:58:56;98112.60;;;3.67;34.65
43480;BME280;29067;35.492;-97.520;2022-10-18T08:01:24;98110.52;;;2.91;34.13
43480;BME280;29067;35.492;-97.520;2022-10-18T08:03:53;98107.03;;;3.73;34.35
43480;BME280;29067;35.492;-97.520;2022-10-18T08:06:22;98102.65;;;3.93;33.28
43480;BME280;29067;35.492;-97.520;2022-10-18T08:08:50;98101.06;;;4.14;32.49
43480;BME280;29067;35.492;-97.520;2022-10-18T08:11:20;98101.10;;;3.83;32.94
43480;BME280;29067;35.492;-97.520;2022-10-18T08:13:49;98099.26;;;4.56;32.69
43480;BME280;29067;35.492;-97.520;2022-10-18T08:16:20;98101.17;;;4.54;33.12
43480;BME280;29067;35.492;-97.520;2022-10-18T08:18:49;98105.37;;;4.42;32.80
43480;BME280;29067;35.492;-97.520;2022-10-18T08:21:18;98106.05;;;3.39;32.70
43480;BME280;29067;35.492;-97.520;2022-10-18T08:23:46;98105.91;;;3.86;33.30
43480;BME280;29067;35.492;-97.520;2022-10-18T08:26:16;98105.68;;;3.67;33.52
43480;BME280;29067;35.492;-97.520;2022-10-18T08:28:45;98106.07;;;3.57;33.87
43480;BME280;29067;35.492;-97.520;2022-10-18T08:31:15;98110.54;;;3.66;34.80
43480;BME280;29067;35.492;-97.520;2022-10-18T08:33:44;98106.01;;;3.66;33.63
43480;BME280;29067;35.492;-97.520;2022-10-18T08:36:14;98110.49;;;3.27;33.89
43480;BME280;29067;35.492;-97.520;2022-10-18T08:38:43;98110.01;;;4.01;33.28
43480;BME280;29067;35.492;-97.520;2022-10-18T08:41:25;98105.70;;;5.05;32.75
43480;BME280;29067;35.492;-97.520;2022-10-18T08:44:05;98111.61;;;4.02;33.30
43480;BME280;29067;35.492;-97.520;2022-10-18T08:46:36;98111.06;;;5.13;33.20
43480;BME280;29067;35.492;-97.520;2022-10-18T08:49:08;98111.69;;;4.16;33.57
43480;BME280;29067;35.492;-97.520;2022-10-18T08:51:42;98114.64;;;4.60;33.21
43480;BME280;29067;35.492;-97.520;2022-10-18T08:54:13;98115.81;;;3.60;34.74
43480;BME280;29067;35.492;-97.520;2022-10-18T08:56:45;98117.04;;;2.64;36.64
43480;BME280;29067;35.492;-97.520;2022-10-18T08:59:17;98115.93;;;3.88;36.35
43480;BME280;29067;35.492;-97.520;2022-10-18T09:01:52;98114.73;;;3.24;36.64
43480;BME280;29067;35.492;-97.520;2022-10-18T09:04:39;98112.55;;;3.01;36.29
43480;BME280;29067;35.492;-97.520;2022-10-18T09:07:31;98112.51;;;2.50;36.93
43480;BME280;29067;35.492;-97.520;2022-10-18T09:10:07;98112.30;;;3.14;37.80
43480;BME280;29067;35.492;-97.520;2022-10-18T09:12:54;98110.91;;;3.64;36.09
43480;BME280;29067;35.492;-97.520;2022-10-18T09:15:34;98112.46;;;3.02;37.00
43480;BME280;29067;35.492;-97.520;2022-10-18T09:18:17;98116.05;;;3.32;37.02
43480;BME280;29067;35.492;-97.520;2022-10-18T09:20:50;98120.36;;;2.59;37.65
43480;BME280;29067;35.492;-97.520;2022-10-18T09:23:23;98122.51;;;3.95;36.19
43480;BME280;29067;35.492;-97.520;2022-10-18T09:26:02;98127.63;;;2.82;37.21
43480;BME280;29067;35.492;-97.520;2022-10-18T09:28:40;98126.63;;;5.30;34.61
43480;BME280;29067;35.492;-97.520;2022-10-18T09:31:17;98129.29;;;2.65;37.18
43480;BME280;29067;35.492;-97.520;2022-10-18T09:33:51;98131.91;;;4.65;35.32
43480;BME280;29067;35.492;-97.520;2022-10-18T09:36:23;98131.49;;;3.89;34.64
43480;BME280;29067;35.492;-97.520;2022-10-18T09:38:54;98132.26;;;2.62;36.00
43480;BME280;29067;35.492;-97.520;2022-10-18T09:41:25;98137.42;;;2.53;36.92
43480;BME280;29067;35.492;-97.520;2022-10-18T09:43:58;98143.63;;;3.25;36.51
43480;BME280;29067;35.492;-97.520;2022-10-18T09:46:38;98147.84;;;3.26;35.49
43480;BME280;29067;35.492;-97.520;2022-10-18T09:49:14;98152.09;;;3.10;36.57
43480;BME280;29067;35.492;-97.520;2022-10-18T09:51:44;98156.83;;;3.17;35.80
43480;BME280;29067;35.492;-97.520;2022-10-18T09:54:19;98153.96;;;2.50;35.77
43480;BME280;29067;35.492;-97.520;2022-10-18T09:56:51;98157.80;;;4.39;34.69
43480;BME280;29067;35.492;-97.520;2022-10-18T09:59:34;98166.00;;;3.22;36.57
43480;BME280;29067;35.492;-97.520;2022-10-18T10:02:04;98165.59;;;2.88;36.08
43480;BME280;29067;35.492;-97.520;2022-10-18T10:04:32;98167.06;;;3.06;36.08
43480;BME280;29067;35.492;-97.520;2022-10-18T10:07:01;98169.30;;;3.52;35.18
43480;BME280;29067;35.492;-97.520;2022-10-18T10:09:39;98168.86;;;4.00;34.19
43480;BME280;29067;35.492;-97.520;2022-10-18T10:12:25;98179.29;;;3.76;34.13
43480;BME280;29067;35.492;-97.520;2022-10-18T10:14:54;98182.95;;;3.94;34.41
43480;BME280;29067;35.492;-97.520;2022-10-18T10:17:33;98185.99;;;4.11;34.90
43480;BME280;29067;35.492;-97.520;2022-10-18T10:20:04;98181.33;;;3.21;34.44
43480;BME280;29067;35.492;-97.520;2022-10-18T10:22:41;98184.12;;;4.27;34.55
43480;BME280;29067;35.492;-97.520;2022-10-18T10:25:21;98193.46;;;4.51;33.92
43480;BME280;29067;35.492;-97.520;2022-10-18T10:27:50;98191.57;;;4.63;34.39
43480;BME280;29067;35.492;-97.520;2022-10-18T10:30:23;98195.67;;;4.08;33.80
43480;BME280;29067;35.492;-97.520;2022-10-18T10:32:53;98200.39;;;4.93;32.60
43480;BME280;29067;35.492;-97.520;2022-10-18T10:35:29;98201.63;;;3.19;34.70
43480;BME280;29067;35.492;-97.520;2022-10-18T10:37:57;98207.03;;;4.05;33.69
43480;BME280;29067;35.492;-97.520;2022-10-18T10:40:26;98208.33;;;4.06;33.56
43480;BME280;29067;35.492;-97.520;2022-10-18T10:43:04;98209.03;;;4.31;33.98
43480;BME280;29067;35.492;-97.520;2022-10-18T10:45:36;98213.25;;;4.33;33.33
43480;BME280;29067;35.492;-97.520;2022-10-18T10:48:10;98208.39;;;4.06;32.42
43480;BME280;29067;35.492;-97.520;2022-10-18T10:50:54;98217.14;;;4.76;32.99
43480;BME280;29067;35.492;-97.520;2022-10-18T10:53:29;98217.03;;;3.54;33.11
43480;BME280;29067;35.492;-97.520;2022-10-18T10:55:58;98221.47;;;2.76;34.14
43480;BME280;29067;35.492;-97.520;2022-10-18T10:58:32;98218.76;;;3.95;32.64
43480;BME280;29067;35.492;-97.520;2022-10-18T11:03:06;98224.45;;;4.33;32.37
43480;BME280;29067;35.492;-97.520;2022-10-18T11:05:44;98225.23;;;2.64;32.90
43480;BME280;29067;35.492;-97.520;2022-10-18T11:08:15;98231.88;;;3.64;33.53
43480;BME280;29067;35.492;-97.520;2022-10-18T11:10:57;98237.33;;;4.90;32.29
43480;BME280;29067;35.492;-97.520;2022-10-18T11:13:40;98238.92;;;3.31;32.56
43480;BME280;29067;35.492;-97.520;2022-10-18T11:16:15;98240.76;;;4.18;31.97
43480;BME280;29067;35.492;-97.520;2022-10-18T11:18:49;98249.36;;;3.45;32.47
43480;BME280;29067;35.492;-97.520;2022-10-18T11:21:20;98249.15;;;4.57;31.77
43480;BME280;29067;35.492;-97.520;2022-10-18T11:23:51;98255.60;;;3.98;33.17
43480;BME280;29067;35.492;-97.520;2022-10-18T11:26:29;98261.09;;;3.35;33.18
43480;BME280;29067;35.492;-97.520;2022-10-18T11:29:46;98261.07;;;4.22;32.92
43480;BME280;29067;35.492;-97.520;2022-10-18T11:32:22;98265.03;;;3.69;31.90
43480;BME280;29067;35.492;-97.520;2022-10-18T11:35:05;98268.40;;;3.30;32.68
43480;BME280;29067;35.492;-97.520;2022-10-18T11:37:49;98274.43;;;4.00;30.95
43480;BME280;29067;35.492;-97.520;2022-10-18T11:40:34;98285.04;;;2.76;32.69
43480;BME280;29067;35.492;-97.520;2022-10-18T11:43:14;98291.41;;;2.67;32.59
43480;BME280;29067;35.492;-97.520;2022-10-18T11:45:53;98293.14;;;3.93;32.77
43480;BME280;29067;35.492;-97.520;2022-10-18T11:48:37;98300.11;;;3.42;31.70
43480;BME280;29067;35.492;-97.520;2022-10-18T11:51:13;98301.81;;;2.75;31.82
43480;BME280;29067;35.492;-97.520;2022-10-18T11:53:52;98308.40;;;2.91;32.34
43480;BME280;29067;35.492;-97.520;2022-10-18T11:56:34;98307.06;;;2.85;32.06
43480;BME280;29067;35.492;-97.520;2022-10-18T11:59:18;98314.12;;;3.03;31.74
43480;BME280;29067;35.492;-97.520;2022-10-18T12:02:01;98310.84;;;2.81;31.30
43480;BME280;29067;35.492;-97.520;2022-10-18T12:04:34;98317.72;;;3.19;31.44
43480;BME280;29067;35.492;-97.520;2022-10-18T12:07:05;98323.77;;;2.89;31.41
43480;BME280;29067;35.492;-97.520;2022-10-18T12:09:37;98323.65;;;3.41;31.51
43480;BME280;29067;35.492;-97.520;2022-10-18T12:12:08;98327.17;;;2.60;32.01
43480;BME280;29067;35.492;-97.520;2022-10-18T12:14:43;98330.81;;;2.36;32.01
43480;BME280;29067;35.492;-97.520;2022-10-18T12:17:19;98333.66;;;3.16;31.57
43480;BME280;29067;35.492;-97.520;2022-10-18T12:19:50;98332.37;;;3.11;31.81
43480;BME280;29067;35.492;-97.520;2022-10-18T12:22:24;98337.47;;;2.82;31.71
43480;BME280;29067;35.492;-97.520;2022-10-18T12:24:54;98340.00;;;2.91;31.73
43480;BME280;29067;35.492;-97.520;2022-10-18T12:27:27;98345.52;;;2.07;31.96
43480;BME280;29067;35.492;-97.520;2022-10-18T12:30:05;98353.14;;;2.36;31.45
43480;BME280;29067;35.492;-97.520;2022-10-18T12:32:39;98349.52;;;1.87;31.87
43480;BME280;29067;35.492;-97.520;2022-10-18T12:35:11;98355.68;;;2.23;31.43
43480;BME280;29067;35.492;-97.520;2022-10-18T12:37:58;98356.22;;;1.50;31.48
43480;BME280;29067;35.492;-97.520;2022-10-18T12:40:37;98355.52;;;1.51;31.90
43480;BME280;29067;35.492;-97.520;2022-10-18T12:43:09;98359.60;;;1.33;32.08
43480;BME280;29067;35.492;-97.520;2022-10-18T12:45:49;98365.23;;;1.78;31.98
43480;BME280;29067;35.492;-97.520;2022-10-18T12:48:35;98371.02;;;2.10;31.61
43480;BME280;29067;35.492;-97.520;2022-10-18T12:51:11;98374.76;;;1.37;31.79
43480;BME280;29067;35.492;-97.520;2022-10-18T12:53:40;98382.45;;;2.00;32.54
43480;BME280;29067;35.492;-97.520;2022-10-18T12:56:42;98386.90;;;1.26;31.64
43480;BME280;29067;35.492;-97.520;2022-10-18T12:59:43;98387.70;;;2.12;30.83
43480;BME280;29067;35.492;-97.520;2022-10-18T13:02:28;98393.51;;;2.39;31.04
43480;BME280;29067;35.492;-97.520;2022-10-18T13:04:57;98395.03;;;2.82;30.22
43480;BME280;29067;35.492;-97.520;2022-10-18T13:07:36;98399.16;;;2.33;30.84
43480;BME280;29067;35.492;-97.520;2022-10-18T13:10:37;98402.55;;;1.76;31.28
43480;BME280;29067;35.492;-97.520;2022-10-18T13:13:17;98406.45;;;0.79;31.55